createdAt,value
2023-05-24T00:02:18.825Z,8.29
2023-05-24T00:04:37.272Z,8.30
2023-05-24T00:06:54.453Z,8.30
2023-05-24T00:09:12.030Z,8.28
2023-05-24T00:11:29.822Z,8.22
2023-05-24T00:13:49.278Z,8.19
2023-05-24T00:16:06.731Z,8.18
2023-05-24T00:18:24.503Z,8.14
2023-05-24T00:20:42.225Z,8.14
2023-05-24T00:23:00.182Z,8.13
2023-05-24T00:25:17.464Z,8.13
2023-05-24T00:27:34.700Z,8.07
2023-05-24T00:29:51.856Z,8.03
2023-05-24T00:32:12.041Z,8.02
2023-05-24T00:34:29.143Z,8.02
2023-05-24T00:36:49.193Z,7.92
2023-05-24T00:39:06.615Z,7.90
2023-05-24T00:41:24.246Z,7.91
2023-05-24T00:43:42.050Z,7.89
2023-05-24T00:46:00.516Z,7.90
2023-05-24T00:48:20.772Z,7.87
2023-05-24T00:50:38.444Z,7.83
2023-05-24T00:52:55.541Z,7.87
2023-05-24T00:55:13.302Z,7.89
2023-05-24T00:57:31.022Z,7.84
2023-05-24T00:59:48.314Z,7.77
2023-05-24T01:02:06.624Z,7.74
2023-05-24T01:04:23.991Z,7.70
2023-05-24T01:06:41.407Z,7.65
2023-05-24T01:08:59.234Z,7.59
2023-05-24T01:11:17.598Z,7.59
2023-05-24T01:13:34.949Z,7.57
2023-05-24T01:15:53.466Z,7.55
2023-05-24T01:18:11.073Z,7.50
2023-05-24T01:20:28.205Z,7.48
2023-05-24T01:22:46.584Z,7.45
2023-05-24T01:25:03.804Z,7.45
2023-05-24T01:27:20.840Z,7.43
2023-05-24T01:29:38.284Z,7.42
2023-05-24T01:31:55.418Z,7.38
2023-05-24T01:34:12.754Z,7.34
2023-05-24T01:36:31.601Z,7.36
2023-05-24T01:38:50.264Z,7.35
2023-05-24T01:41:07.431Z,7.32
2023-05-24T01:43:27.395Z,7.30
2023-05-24T01:45:44.409Z,7.27
2023-05-24T01:48:01.933Z,7.25
2023-05-24T01:50:19.483Z,7.22
2023-05-24T01:52:36.903Z,7.23
2023-05-24T01:54:53.852Z,7.19
2023-05-24T01:57:11.536Z,7.15
2023-05-24T01:59:28.874Z,7.12
2023-05-24T02:01:47.416Z,7.07
2023-05-24T02:04:04.836Z,7.05
2023-05-24T02:06:22.220Z,7.02
2023-05-24T02:08:39.606Z,7.00
2023-05-24T02:10:56.897Z,6.97
2023-05-24T02:13:14.194Z,6.95
2023-05-24T02:15:31.576Z,6.92
2023-05-24T02:17:48.942Z,6.92
2023-05-24T02:20:06.232Z,6.92
2023-05-24T02:22:23.235Z,6.86
2023-05-24T02:24:40.891Z,6.84
2023-05-24T02:26:58.268Z,6.81
2023-05-24T02:29:16.032Z,6.79
2023-05-24T02:31:33.528Z,6.78
2023-05-24T02:33:50.931Z,6.77
2023-05-24T02:36:08.269Z,6.75
2023-05-24T02:38:26.567Z,6.76
2023-05-24T02:40:44.164Z,6.74
2023-05-24T02:43:01.614Z,6.71
2023-05-24T02:45:18.989Z,6.74
2023-05-24T02:47:36.302Z,6.72
2023-05-24T02:49:53.598Z,6.70
2023-05-24T02:52:11.934Z,6.61
2023-05-24T02:54:29.250Z,6.64
2023-05-24T02:56:46.557Z,6.63
2023-05-24T02:59:04.247Z,6.59
2023-05-24T03:01:22.675Z,6.59
2023-05-24T03:03:40.178Z,6.59
2023-05-24T03:05:57.513Z,6.58
2023-05-24T03:08:14.379Z,6.56
2023-05-24T03:10:31.687Z,6.54
2023-05-24T03:12:49.063Z,6.50
2023-05-24T03:15:05.951Z,6.45
2023-05-24T03:17:22.792Z,6.45
2023-05-24T03:19:39.727Z,6.45
2023-05-24T03:21:57.098Z,6.50
2023-05-24T03:24:13.968Z,6.45
2023-05-24T03:26:30.902Z,6.43
2023-05-24T03:28:48.048Z,6.39
2023-05-24T03:31:04.961Z,6.40
2023-05-24T03:33:22.027Z,6.39
2023-05-24T03:35:38.919Z,6.34
2023-05-24T03:37:55.817Z,6.29
2023-05-24T03:40:12.734Z,6.29
2023-05-24T03:42:29.588Z,6.24
2023-05-24T03:44:46.888Z,6.24
2023-05-24T03:47:03.835Z,6.22
2023-05-24T03:49:20.793Z,6.24
2023-05-24T03:51:37.724Z,6.22
2023-05-24T03:53:54.648Z,6.22
2023-05-24T03:56:11.537Z,6.21
2023-05-24T03:58:28.502Z,6.19
2023-05-24T04:00:45.931Z,6.14
2023-05-24T04:03:02.956Z,6.10
2023-05-24T04:05:19.890Z,6.10
2023-05-24T04:07:36.876Z,6.06
2023-05-24T04:09:53.773Z,6.02
2023-05-24T04:12:10.655Z,6.00
2023-05-24T04:14:27.540Z,6.01
2023-05-24T04:16:44.507Z,6.02
2023-05-24T04:19:01.495Z,6.04
2023-05-24T04:21:18.417Z,6.03
2023-05-24T04:23:35.323Z,6.07
2023-05-24T04:25:52.252Z,6.14
2023-05-24T04:28:09.129Z,6.12
2023-05-24T04:30:26.051Z,6.14
2023-05-24T04:32:42.993Z,6.13
2023-05-24T04:34:59.931Z,6.10
2023-05-24T04:37:16.829Z,6.08
2023-05-24T04:39:33.755Z,6.13
2023-05-24T04:41:50.683Z,6.13
2023-05-24T04:44:07.583Z,6.10
2023-05-24T04:46:25.015Z,6.11
2023-05-24T04:48:41.950Z,6.15
2023-05-24T04:50:58.912Z,6.17
2023-05-24T04:53:15.828Z,6.19
2023-05-24T04:55:32.728Z,6.30
2023-05-24T04:57:49.657Z,6.36
2023-05-24T05:00:07.038Z,6.43
2023-05-24T05:02:24.574Z,6.44
2023-05-24T05:04:41.552Z,6.43
2023-05-24T05:06:58.949Z,6.45
2023-05-24T05:09:15.832Z,6.49
2023-05-24T05:11:32.794Z,6.64
2023-05-24T05:13:49.708Z,6.83
2023-05-24T05:16:06.691Z,6.88
2023-05-24T05:18:23.615Z,6.99
2023-05-24T05:20:41.304Z,7.08
2023-05-24T05:22:58.437Z,7.20
2023-05-24T05:25:15.833Z,7.29
2023-05-24T05:27:32.768Z,7.39
2023-05-24T05:29:49.704Z,7.51
2023-05-24T05:32:06.741Z,7.64
2023-05-24T05:34:24.186Z,7.76
2023-05-24T05:36:41.599Z,7.90
2023-05-24T05:38:58.579Z,8.05
2023-05-24T05:41:15.454Z,8.17
2023-05-24T05:43:32.329Z,8.31
2023-05-24T05:45:49.820Z,8.47
2023-05-24T05:48:06.795Z,8.55
2023-05-24T05:50:23.706Z,8.58
2023-05-24T05:52:40.628Z,8.63
2023-05-24T05:54:57.602Z,8.63
2023-05-24T05:57:14.542Z,8.75
2023-05-24T05:59:31.421Z,8.95
2023-05-24T06:01:48.322Z,9.13
2023-05-24T06:04:05.296Z,9.30
2023-05-24T06:06:22.291Z,9.35
2023-05-24T06:08:39.184Z,9.50
2023-05-24T06:10:56.090Z,9.67
2023-05-24T06:13:13.464Z,9.77
2023-05-24T06:15:30.380Z,9.87
2023-05-24T06:17:47.355Z,9.99
2023-05-24T06:20:04.260Z,10.08
2023-05-24T06:22:21.191Z,10.13
2023-05-24T06:24:38.146Z,10.24
2023-05-24T06:26:55.512Z,10.31
2023-05-24T06:29:12.425Z,10.45
2023-05-24T06:31:29.410Z,10.61
2023-05-24T06:33:52.521Z,10.75
2023-05-24T06:36:13.688Z,10.87
2023-05-24T06:38:30.567Z,11.05
2023-05-24T06:40:47.505Z,11.23
2023-05-24T06:43:04.450Z,11.28
2023-05-24T06:45:21.372Z,11.32
2023-05-24T06:47:40.373Z,11.45
2023-05-24T06:49:57.302Z,11.58
2023-05-24T06:52:14.256Z,11.74
2023-05-24T06:54:31.342Z,11.84
2023-05-24T06:56:48.227Z,11.86
2023-05-24T06:59:05.149Z,11.75
2023-05-24T07:01:22.124Z,11.73
2023-05-24T07:03:39.118Z,11.87
2023-05-24T07:05:56.036Z,11.93
2023-05-24T07:08:12.976Z,12.09
2023-05-24T07:10:29.954Z,12.02
2023-05-24T07:12:46.837Z,12.16
2023-05-24T07:15:03.762Z,12.19
2023-05-24T07:17:20.708Z,12.28
2023-05-24T07:19:38.217Z,12.38
2023-05-24T07:21:55.137Z,12.36
2023-05-24T07:24:13.090Z,12.59
2023-05-24T07:26:31.654Z,12.70
2023-05-24T07:28:49.046Z,12.76
2023-05-24T07:31:05.963Z,12.78
2023-05-24T07:33:22.890Z,12.88
2023-05-24T07:35:39.945Z,13.05
2023-05-24T07:37:56.923Z,13.15
2023-05-24T07:40:13.837Z,13.19
2023-05-24T07:42:30.735Z,13.33
2023-05-24T07:44:48.156Z,13.46
2023-05-24T07:47:05.062Z,13.62
2023-05-24T07:49:22.436Z,13.75
2023-05-24T07:51:39.323Z,13.72
2023-05-24T07:53:56.219Z,13.76
2023-05-24T07:56:13.164Z,13.71
2023-05-24T07:58:30.108Z,13.89
2023-05-24T08:00:47.057Z,14.03
2023-05-24T08:03:04.002Z,14.18
2023-05-24T08:05:21.012Z,14.25
2023-05-24T08:07:37.911Z,14.18
2023-05-24T08:09:54.842Z,14.43
2023-05-24T08:12:11.732Z,14.52
2023-05-24T08:14:28.692Z,14.56
2023-05-24T08:16:45.714Z,14.76
2023-05-24T08:19:02.644Z,14.77
2023-05-24T08:21:19.550Z,14.84
2023-05-24T08:23:36.498Z,14.66
2023-05-24T08:25:53.461Z,14.76
2023-05-24T08:28:10.442Z,14.67
2023-05-24T08:30:27.689Z,14.82
2023-05-24T08:32:44.693Z,14.81
2023-05-24T08:35:18.230Z,14.88
2023-05-24T08:37:36.897Z,14.88
2023-05-24T08:39:53.847Z,14.74
2023-05-24T08:42:10.865Z,14.82
2023-05-24T08:44:27.834Z,15.01
2023-05-24T08:46:44.801Z,15.05
2023-05-24T08:49:01.830Z,15.27
2023-05-24T08:51:18.781Z,15.37
2023-05-24T08:53:35.705Z,15.40
2023-05-24T08:55:52.631Z,15.50
2023-05-24T08:58:09.568Z,15.36
2023-05-24T09:00:26.502Z,15.27
2023-05-24T09:02:43.475Z,15.29
2023-05-24T09:05:00.422Z,15.14
2023-05-24T09:07:17.786Z,15.18
2023-05-24T09:09:34.810Z,15.22
2023-05-24T09:11:51.695Z,15.29
2023-05-24T09:14:08.588Z,15.47
2023-05-24T09:16:25.555Z,15.53
2023-05-24T09:18:42.548Z,15.51
2023-05-24T09:20:59.519Z,15.62
2023-05-24T09:23:16.416Z,15.75
2023-05-24T09:25:33.346Z,15.95
2023-05-24T09:27:50.248Z,15.92
2023-05-24T09:30:07.176Z,15.97
2023-05-24T09:32:24.144Z,15.80
2023-05-24T09:34:41.056Z,15.78
2023-05-24T09:36:57.993Z,15.46
2023-05-24T09:39:14.902Z,15.45
2023-05-24T09:41:31.805Z,15.45
2023-05-24T09:43:48.729Z,15.39
2023-05-24T09:46:05.658Z,15.40
2023-05-24T09:48:23.043Z,15.15
2023-05-24T09:50:39.994Z,15.24
2023-05-24T09:52:56.901Z,15.26
2023-05-24T09:55:13.880Z,15.16
2023-05-24T09:57:30.874Z,15.27
2023-05-24T09:59:47.830Z,15.20
2023-05-24T10:02:04.697Z,15.58
2023-05-24T10:04:21.750Z,15.88
2023-05-24T10:06:39.202Z,15.86
2023-05-24T10:08:56.103Z,16.13
2023-05-24T10:11:12.986Z,16.47
2023-05-24T10:13:30.453Z,16.71
2023-05-24T10:15:47.490Z,16.75
2023-05-24T10:18:04.486Z,16.58
2023-05-24T10:20:21.551Z,16.35
2023-05-24T10:22:39.015Z,16.54
2023-05-24T10:24:55.895Z,16.92
2023-05-24T10:27:12.798Z,16.59
2023-05-24T10:29:29.739Z,16.87
2023-05-24T10:31:47.303Z,16.89
2023-05-24T10:34:08.356Z,16.92
2023-05-24T10:36:25.945Z,16.78
2023-05-24T10:38:42.883Z,16.88
2023-05-24T10:40:59.848Z,17.10
2023-05-24T10:43:16.780Z,17.17
2023-05-24T10:45:33.698Z,17.23
2023-05-24T10:47:50.602Z,17.30
2023-05-24T10:50:07.554Z,17.45
2023-05-24T10:52:24.440Z,17.21
2023-05-24T10:54:49.640Z,17.10
2023-05-24T10:57:16.630Z,17.19
2023-05-24T10:59:33.565Z,17.15
2023-05-24T11:01:50.621Z,17.13
2023-05-24T11:04:07.565Z,17.08
2023-05-24T11:06:24.452Z,17.22
2023-05-24T11:08:41.904Z,17.18
2023-05-24T11:11:05.707Z,17.41
2023-05-24T11:13:28.660Z,17.42
2023-05-24T11:15:46.054Z,17.58
2023-05-24T11:18:03.029Z,17.63
2023-05-24T11:20:20.460Z,17.17
2023-05-24T11:22:37.390Z,17.57
2023-05-24T11:24:54.264Z,17.56
2023-05-24T11:27:11.323Z,17.74
2023-05-24T11:29:28.811Z,17.88
2023-05-24T11:31:45.847Z,18.24
2023-05-24T11:34:03.427Z,18.12
2023-05-24T11:36:20.403Z,17.92
2023-05-24T11:38:37.355Z,17.71
2023-05-24T11:40:54.288Z,17.49
2023-05-24T11:43:11.207Z,17.66
2023-05-24T11:45:28.113Z,17.60
2023-05-24T11:47:45.054Z,17.45
2023-05-24T11:50:02.515Z,17.55
2023-05-24T11:52:19.428Z,17.34
2023-05-24T11:54:36.342Z,17.48
2023-05-24T11:56:53.671Z,17.96
2023-05-24T11:59:10.602Z,18.20
2023-05-24T12:01:27.619Z,18.40
2023-05-24T12:03:44.807Z,18.11
2023-05-24T12:06:01.884Z,17.72
2023-05-24T12:08:18.800Z,17.93
2023-05-24T12:10:35.717Z,17.94
2023-05-24T12:12:52.754Z,17.75
2023-05-24T12:15:09.649Z,17.34
2023-05-24T12:17:26.629Z,17.46
2023-05-24T12:19:43.673Z,17.50
2023-05-24T12:22:00.731Z,17.63
2023-05-24T12:24:17.645Z,17.60
2023-05-24T12:26:34.586Z,17.57
2023-05-24T12:28:51.939Z,17.63
2023-05-24T12:31:08.924Z,17.52
2023-05-24T12:33:25.835Z,17.37
2023-05-24T12:35:42.730Z,17.46
2023-05-24T12:37:59.592Z,17.64
2023-05-24T12:40:16.534Z,17.94
2023-05-24T12:42:33.446Z,17.60
2023-05-24T12:44:50.398Z,17.37
2023-05-24T12:47:07.678Z,17.35
2023-05-24T12:49:24.751Z,17.27
2023-05-24T12:51:41.788Z,17.21
2023-05-24T12:53:58.681Z,17.01
2023-05-24T12:56:15.592Z,17.10
2023-05-24T12:58:32.503Z,17.04
2023-05-24T13:00:49.419Z,17.02
2023-05-24T13:03:06.895Z,16.82
2023-05-24T13:05:23.849Z,16.77
2023-05-24T13:07:40.864Z,16.72
2023-05-24T13:09:57.952Z,16.50
2023-05-24T13:12:15.328Z,16.44
2023-05-24T13:14:32.246Z,16.51
2023-05-24T13:16:49.303Z,16.55
2023-05-24T13:19:06.403Z,16.49
2023-05-24T13:21:23.372Z,16.40
2023-05-24T13:23:40.362Z,16.41
2023-05-24T13:25:57.318Z,16.56
2023-05-24T13:28:14.256Z,16.56
2023-05-24T13:30:31.155Z,16.48
2023-05-24T13:32:51.376Z,16.59
2023-05-24T13:35:08.756Z,16.71
2023-05-24T13:37:25.721Z,16.67
2023-05-24T13:39:42.627Z,16.69
2023-05-24T13:41:59.574Z,16.27
2023-05-24T13:44:16.612Z,16.28
2023-05-24T13:46:33.578Z,16.25
2023-05-24T13:48:50.518Z,16.09
2023-05-24T13:51:07.447Z,16.13
2023-05-24T13:53:24.390Z,15.96
2023-05-24T13:55:41.272Z,15.97
2023-05-24T13:57:58.189Z,15.98
2023-05-24T14:00:15.077Z,16.08
2023-05-24T14:02:32.062Z,16.00
2023-05-24T14:04:49.386Z,15.96
2023-05-24T14:07:06.380Z,16.09
2023-05-24T14:09:23.795Z,16.10
2023-05-24T14:11:41.207Z,16.12
2023-05-24T14:16:18.026Z,16.17
2023-05-24T14:18:35.040Z,16.24
2023-05-24T14:20:52.023Z,16.33
2023-05-24T14:23:08.938Z,16.32
2023-05-24T14:25:26.347Z,16.31
2023-05-24T14:27:43.815Z,16.06
2023-05-24T14:30:00.836Z,15.95
2023-05-24T14:32:17.914Z,15.85
2023-05-24T14:34:34.872Z,15.73
2023-05-24T14:36:51.792Z,15.80
2023-05-24T14:39:08.725Z,15.75
2023-05-24T14:41:25.679Z,15.84
2023-05-24T14:43:42.643Z,16.02
2023-05-24T14:45:59.616Z,15.81
2023-05-24T14:48:16.654Z,15.90
2023-05-24T14:50:33.599Z,15.84
2023-05-24T14:52:50.886Z,15.84
2023-05-24T14:55:08.590Z,15.83
2023-05-24T14:57:25.509Z,16.00
2023-05-24T14:59:42.427Z,16.01
2023-05-24T15:01:59.356Z,16.18
2023-05-24T15:04:16.270Z,16.13
2023-05-24T15:06:33.201Z,16.13
2023-05-24T15:08:50.569Z,16.18
2023-05-24T15:11:07.466Z,16.27
2023-05-24T15:13:24.355Z,16.17
2023-05-24T15:15:41.302Z,15.97
2023-05-24T15:17:58.244Z,16.03
2023-05-24T15:20:15.231Z,16.03
2023-05-24T15:22:32.126Z,15.82
2023-05-24T15:24:49.064Z,15.77
2023-05-24T15:27:05.992Z,15.76
2023-05-24T15:29:22.912Z,15.67
2023-05-24T15:31:39.814Z,15.55
2023-05-24T15:33:56.778Z,15.51
2023-05-24T15:36:13.685Z,15.50
2023-05-24T15:38:30.584Z,15.44
2023-05-24T15:40:47.500Z,15.37
2023-05-24T15:43:04.881Z,15.09
2023-05-24T15:45:21.770Z,14.99
2023-05-24T15:47:38.733Z,14.99
2023-05-24T15:49:55.642Z,14.99
2023-05-24T15:52:12.621Z,14.95
2023-05-24T15:54:29.500Z,14.87
2023-05-24T15:56:46.510Z,14.80
2023-05-24T15:59:03.892Z,14.64
2023-05-24T16:01:20.917Z,14.55
2023-05-24T16:03:38.274Z,14.56
2023-05-24T16:05:55.372Z,14.43
2023-05-24T16:08:12.307Z,14.42
2023-05-24T16:10:29.242Z,14.40
2023-05-24T16:12:46.138Z,14.43
2023-05-24T16:15:03.075Z,14.47
2023-05-24T16:17:20.083Z,14.47
2023-05-24T16:19:37.124Z,14.52
2023-05-24T16:21:54.099Z,14.46
2023-05-24T16:24:11.575Z,14.45
2023-05-24T16:26:28.551Z,14.44
2023-05-24T16:28:45.532Z,14.49
2023-05-24T16:31:02.470Z,14.30
2023-05-24T16:33:19.402Z,14.27
2023-05-24T16:35:36.351Z,14.28
2023-05-24T16:37:53.314Z,14.22
2023-05-24T16:40:10.259Z,14.27
2023-05-24T16:42:27.178Z,14.30
2023-05-24T16:44:44.121Z,14.19
2023-05-24T16:47:01.100Z,14.22
2023-05-24T16:49:18.464Z,14.22
2023-05-24T16:51:35.397Z,14.20
2023-05-24T16:53:52.328Z,14.14
2023-05-24T16:56:09.257Z,14.14
2023-05-24T16:58:26.184Z,14.12
2023-05-24T17:00:43.286Z,14.03
2023-05-24T17:03:00.416Z,13.95
2023-05-24T17:05:17.544Z,13.81
2023-05-24T17:07:34.463Z,13.83
2023-05-24T17:09:51.897Z,13.70
2023-05-24T17:12:08.867Z,13.70
2023-05-24T17:14:25.855Z,13.69
2023-05-24T17:16:42.843Z,13.68
2023-05-24T17:18:59.849Z,13.62
2023-05-24T17:21:16.745Z,13.62
2023-05-24T17:23:33.720Z,13.60
2023-05-24T17:25:50.660Z,13.55
2023-05-24T17:28:07.554Z,13.52
2023-05-24T17:30:24.489Z,13.54
2023-05-24T17:32:41.467Z,13.54
2023-05-24T17:34:58.406Z,13.58
2023-05-24T17:37:15.348Z,13.58
2023-05-24T17:39:32.300Z,13.60
2023-05-24T17:41:49.263Z,13.61
2023-05-24T17:44:06.202Z,13.60
2023-05-24T17:46:23.175Z,13.58
2023-05-24T17:48:40.109Z,13.60
2023-05-24T17:50:58.445Z,13.60
2023-05-24T17:53:30.444Z,13.59
2023-05-24T17:55:48.383Z,13.59
2023-05-24T17:58:05.766Z,13.57
2023-05-24T18:00:22.716Z,13.56
2023-05-24T18:02:39.725Z,13.56
2023-05-24T18:04:56.845Z,13.58
2023-05-24T18:07:13.789Z,13.56
2023-05-24T18:09:30.750Z,13.58
2023-05-24T18:11:47.682Z,13.56
2023-05-24T18:14:04.636Z,13.55
2023-05-24T18:16:21.603Z,13.53
2023-05-24T18:18:38.581Z,13.48
2023-05-24T18:20:55.518Z,13.45
2023-05-24T18:23:12.430Z,13.45
2023-05-24T18:25:29.341Z,13.39
2023-05-24T18:27:46.233Z,13.34
2023-05-24T18:30:03.190Z,13.28
2023-05-24T18:32:20.254Z,13.25
2023-05-24T18:34:37.142Z,13.20
2023-05-24T18:36:54.128Z,13.14
2023-05-24T18:39:11.509Z,13.06
2023-05-24T18:41:28.410Z,13.01
2023-05-24T18:43:45.323Z,12.98
2023-05-24T18:46:02.273Z,12.90
2023-05-24T18:48:19.184Z,12.83
2023-05-24T18:50:36.090Z,12.72
2023-05-24T18:52:52.970Z,12.59
2023-05-24T18:55:09.895Z,12.49
2023-05-24T18:57:26.794Z,12.38
2023-05-24T18:59:43.684Z,12.27
2023-05-24T19:02:00.667Z,12.19
2023-05-24T19:04:17.688Z,12.11
2023-05-24T19:06:34.624Z,12.02
2023-05-24T19:08:52.069Z,11.95
2023-05-24T19:11:09.022Z,11.91
2023-05-24T19:13:25.984Z,11.86
2023-05-24T19:15:43.184Z,11.74
2023-05-24T19:18:00.503Z,11.67
2023-05-24T19:20:17.854Z,11.59
2023-05-24T19:22:35.134Z,11.54
2023-05-24T19:24:52.065Z,11.53
2023-05-24T19:27:09.001Z,11.50
2023-05-24T19:29:25.932Z,11.46
2023-05-24T19:31:42.919Z,11.39
2023-05-24T19:34:01.178Z,11.35
2023-05-24T19:36:18.273Z,11.26
2023-05-24T19:38:35.179Z,11.20
2023-05-24T19:40:52.503Z,11.14
2023-05-24T19:43:09.458Z,11.09
2023-05-24T19:45:26.435Z,11.01
2023-05-24T19:47:43.360Z,10.98
2023-05-24T19:50:00.329Z,10.88
2023-05-24T19:52:17.271Z,10.78
2023-05-24T19:54:34.217Z,10.69
2023-05-24T19:56:51.199Z,10.64
2023-05-24T19:59:08.147Z,10.63
2023-05-24T20:01:25.080Z,10.58
2023-05-24T20:03:42.027Z,10.53
2023-05-24T20:05:59.019Z,10.45
2023-05-24T20:08:15.972Z,10.41
2023-05-24T20:10:32.916Z,10.35
2023-05-24T20:12:49.857Z,10.33
2023-05-24T20:15:06.791Z,10.29
2023-05-24T20:17:23.808Z,10.24
2023-05-24T20:19:40.804Z,10.21
2023-05-24T20:21:57.761Z,10.12
2023-05-24T20:24:14.699Z,10.03
2023-05-24T20:26:31.702Z,9.95
2023-05-24T20:28:48.647Z,9.91
2023-05-24T20:31:05.663Z,9.87
2023-05-24T20:33:22.579Z,9.76
2023-05-24T20:35:39.551Z,9.72
2023-05-24T20:37:56.475Z,9.65
2023-05-24T20:40:13.432Z,9.63
2023-05-24T20:42:30.348Z,9.58
2023-05-24T20:44:47.274Z,9.59
2023-05-24T20:47:04.209Z,9.46
2023-05-24T20:49:21.614Z,9.45
2023-05-24T20:51:38.954Z,9.39
2023-05-24T20:53:55.993Z,9.31
2023-05-24T20:56:12.882Z,9.26
2023-05-24T20:58:29.828Z,9.21
2023-05-24T21:00:46.791Z,9.16
2023-05-24T21:03:04.553Z,9.15
2023-05-24T21:05:21.658Z,9.12
2023-05-24T21:07:38.565Z,9.13
2023-05-24T21:09:55.503Z,9.15
2023-05-24T21:12:12.439Z,9.11
2023-05-24T21:14:31.387Z,9.02
2023-05-24T21:16:48.856Z,8.98
2023-05-24T21:19:05.829Z,8.93
2023-05-24T21:21:22.741Z,8.94
2023-05-24T21:23:39.747Z,8.94
2023-05-24T21:25:56.769Z,8.96
2023-05-24T21:28:13.670Z,8.99
2023-05-24T21:30:30.714Z,8.92
2023-05-24T21:32:47.715Z,8.84
2023-05-24T21:35:05.222Z,8.77
2023-05-24T21:37:22.145Z,8.76
2023-05-24T21:39:39.079Z,8.69
2023-05-24T21:41:55.991Z,8.64
2023-05-24T21:44:12.897Z,8.64
2023-05-24T21:46:29.869Z,8.68
2023-05-24T21:48:46.830Z,8.70
2023-05-24T21:51:03.733Z,8.74
2023-05-24T21:53:20.681Z,8.71
2023-05-24T21:55:37.691Z,8.72
2023-05-24T21:57:54.643Z,8.76
2023-05-24T22:00:13.604Z,8.75
2023-05-24T22:02:30.544Z,8.71
2023-05-24T22:04:48.063Z,8.71
2023-05-24T22:07:07.119Z,8.75
2023-05-24T22:09:26.172Z,8.79
2023-05-24T22:11:43.179Z,8.81
2023-05-24T22:14:00.140Z,8.83
2023-05-24T22:16:17.158Z,8.80
2023-05-24T22:18:34.101Z,8.72
2023-05-24T22:20:51.586Z,8.66
2023-05-24T22:23:08.782Z,8.66
2023-05-24T22:25:33.016Z,8.66
2023-05-24T22:27:52.217Z,8.69
2023-05-24T22:30:09.127Z,8.68
2023-05-24T22:32:26.136Z,8.63
2023-05-24T22:34:43.123Z,8.60
2023-05-24T22:37:07.261Z,8.55
2023-05-24T22:39:25.265Z,8.54
2023-05-24T22:41:42.114Z,8.52
2023-05-24T22:43:59.737Z,8.47
2023-05-24T22:46:16.706Z,8.47
2023-05-24T22:48:33.937Z,8.46
2023-05-24T22:50:50.897Z,8.46
2023-05-24T22:53:07.921Z,8.48
2023-05-24T22:55:24.816Z,8.41
2023-05-24T22:57:42.120Z,8.35
2023-05-24T22:59:59.033Z,8.35
2023-05-24T23:02:18.528Z,8.29
2023-05-24T23:04:35.488Z,8.25
2023-05-24T23:06:53.430Z,8.16
2023-05-24T23:09:11.596Z,8.10
2023-05-24T23:11:28.587Z,8.06
2023-05-24T23:13:45.538Z,8.04
2023-05-24T23:16:02.489Z,8.09
2023-05-24T23:18:20.470Z,8.11
2023-05-24T23:20:37.416Z,8.13
2023-05-24T23:22:54.307Z,8.13
2023-05-24T23:25:11.226Z,8.08
2023-05-24T23:27:28.164Z,8.05
2023-05-24T23:29:45.154Z,8.04
2023-05-24T23:32:02.046Z,8.04
2023-05-24T23:34:18.955Z,8.03
2023-05-24T23:36:36.358Z,8.04
2023-05-24T23:41:24.250Z,8.06
2023-05-24T23:43:41.256Z,8.05
2023-05-24T23:45:58.203Z,8.05
2023-05-24T23:48:17.835Z,8.08
2023-05-24T23:50:42.861Z,8.06
2023-05-24T23:53:07.339Z,8.03
2023-05-24T23:55:24.275Z,8.01
2023-05-24T23:57:41.211Z,7.97
